Time;durP1;ratioP1;P1;durP2;ratioP2;P2;SDS_P1;SDS_P2;PMS_P1;PMS_P2;Temp;Humidity;BMP_temperature;BMP_pressure;BME280_temperature;BME280_humidity;BME280_pressure;Samples;Min_cycle;Max_cycle;Signal;HPM_P1;HPM_P2
2022/04/22 00:01:10;;;;;;;30.97;22.27;;;9.20;99.90;;;;;;5073386;28;20194;-74
2022/04/22 00:03:38;;;;;;;31.70;21.50;;;9.20;99.90;;;;;;5073269;28;20198;-74
2022/04/22 00:06:06;;;;;;;30.27;22.60;;;9.20;99.90;;;;;;5055001;28;20195;-74
2022/04/22 00:08:33;;;;;;;30.63;21.80;;;9.20;99.90;;;;;;5054411;28;20206;-71
2022/04/22 00:13:44;;;;;;;29.40;21.33;;;9.20;99.90;;;;;;5068126;28;20224;-73
2022/04/22 00:16:11;;;;;;;31.37;21.87;;;9.20;99.90;;;;;;5064291;28;20215;-72
2022/04/22 00:18:38;;;;;;;27.93;20.17;;;9.20;99.90;;;;;;5056880;28;20214;-72
2022/04/22 00:21:07;;;;;;;30.03;21.03;;;9.20;99.90;;;;;;5072406;28;20232;-72
2022/04/22 00:23:34;;;;;;;30.47;21.20;;;9.20;99.90;;;;;;5068225;28;20195;-73
2022/04/22 00:26:00;;;;;;;29.53;21.07;;;9.10;99.90;;;;;;5054644;28;20202;-73
2022/04/22 00:28:27;;;;;;;29.03;21.20;;;9.00;99.90;;;;;;5060408;28;20598;-73
2022/04/22 00:30:54;;;;;;;29.10;20.40;;;9.00;99.90;;;;;;5074246;28;20205;-72
2022/04/22 00:33:21;;;;;;;28.97;19.93;;;8.90;99.90;;;;;;5058872;28;20230;-72
2022/04/22 00:35:48;;;;;;;30.17;21.77;;;8.80;99.90;;;;;;5054734;28;20226;-73
2022/04/22 00:38:17;;;;;;;27.33;19.87;;;8.70;99.90;;;;;;5069335;28;20255;-72
2022/04/22 00:40:44;;;;;;;27.90;20.20;;;8.60;99.90;;;;;;5065981;28;20206;-73
2022/04/22 00:43:15;;;;;;;31.13;21.03;;;8.50;99.90;;;;;;5061386;28;20195;-73
2022/04/22 00:45:42;;;;;;;29.03;19.80;;;8.40;99.90;;;;;;5063002;28;20573;-73
2022/04/22 00:48:09;;;;;;;26.83;19.33;;;8.40;99.90;;;;;;5068977;28;20234;-73
2022/04/22 00:50:37;;;;;;;27.87;19.60;;;8.30;99.90;;;;;;5056406;28;20207;-72
2022/04/22 00:53:05;;;;;;;27.70;19.63;;;8.10;99.90;;;;;;5069894;28;20198;-73
2022/04/22 00:55:34;;;;;;;27.13;19.63;;;8.00;99.90;;;;;;5064549;28;20219;-72
2022/04/22 00:58:02;;;;;;;31.50;20.57;;;7.90;99.90;;;;;;5065374;28;20668;-73
2022/04/22 01:00:29;;;;;;;28.13;20.23;;;7.80;99.90;;;;;;5059130;28;20210;-73
2022/04/22 01:02:56;;;;;;;28.43;19.80;;;7.70;99.90;;;;;;5072254;28;20194;-73
2022/04/22 01:10:57;;;;;;;30.13;19.63;;;7.60;99.90;;;;;;5067786;28;20328;-72
2022/04/22 01:13:25;;;;;;;26.60;19.00;;;7.50;99.90;;;;;;5067758;28;20207;-72
2022/04/22 01:15:52;;;;;;;26.87;19.43;;;7.50;99.90;;;;;;5069411;28;20717;-73
2022/04/22 01:18:19;;;;;;;28.10;20.13;;;7.40;99.90;;;;;;5073236;28;20289;-73
2022/04/22 01:20:46;;;;;;;29.90;20.13;;;7.60;99.90;;;;;;5073049;28;20206;-73
2022/04/22 01:23:14;;;;;;;28.83;19.70;;;7.50;99.90;;;;;;5068923;28;20521;-73
2022/04/22 01:25:41;;;;;;;25.53;18.03;;;7.40;99.90;;;;;;5064697;28;20191;-73
2022/04/22 01:28:09;;;;;;;27.27;17.77;;;7.50;99.90;;;;;;5060968;28;20525;-73
2022/04/22 01:30:36;;;;;;;27.10;18.40;;;7.40;99.90;;;;;;5052547;28;20581;-73
2022/04/22 01:33:04;;;;;;;27.83;19.63;;;7.40;99.90;;;;;;5069258;28;20347;-73
2022/04/22 01:35:30;;;;;;;25.50;18.57;;;7.40;99.90;;;;;;5073091;28;20218;-73
2022/04/22 01:37:57;;;;;;;26.77;19.03;;;7.40;99.90;;;;;;5071828;28;20656;-73
2022/04/22 01:40:26;;;;;;;25.07;17.70;;;7.40;99.90;;;;;;5072642;28;20190;-73
2022/04/22 01:42:53;;;;;;;27.03;18.27;;;7.40;99.90;;;;;;5071631;28;20194;-73
2022/04/22 01:45:20;;;;;;;25.57;17.73;;;7.50;99.90;;;;;;5073191;28;20285;-73
2022/04/22 01:47:47;;;;;;;24.57;17.50;;;7.50;99.90;;;;;;5071424;28;20649;-73
2022/04/22 01:50:14;;;;;;;26.17;18.20;;;7.60;99.90;;;;;;5072475;28;20204;-73
2022/04/22 01:52:41;;;;;;;25.87;17.70;;;7.70;99.90;;;;;;5060688;28;20657;-73
2022/04/22 01:55:09;;;;;;;23.77;17.10;;;7.70;99.90;;;;;;5068126;28;20297;-73
2022/04/22 01:57:38;;;;;;;25.93;17.83;;;7.80;99.90;;;;;;5054458;28;20573;-73
2022/04/22 02:00:06;;;;;;;24.50;17.33;;;7.80;99.90;;;;;;5064065;28;20210;-73
2022/04/22 02:02:33;;;;;;;26.17;18.97;;;7.80;99.90;;;;;;5054039;28;20195;-73
2022/04/22 02:05:00;;;;;;;25.73;18.27;;;7.90;99.90;;;;;;5066351;28;20205;-73
2022/04/22 02:07:27;;;;;;;27.60;19.17;;;7.90;99.90;;;;;;5072742;28;20199;-73
2022/04/22 02:09:54;;;;;;;28.07;18.33;;;7.90;99.90;;;;;;5064080;28;20203;-73
2022/04/22 02:12:21;;;;;;;24.97;16.97;;;7.90;99.90;;;;;;5072389;28;20198;-73
2022/04/22 02:14:49;;;;;;;25.43;18.27;;;7.90;99.90;;;;;;5062140;28;20191;-73
2022/04/22 02:17:16;;;;;;;23.87;17.70;;;7.90;99.90;;;;;;5062293;28;20191;-73
2022/04/22 02:19:43;;;;;;;24.73;17.87;;;7.90;99.90;;;;;;5052057;28;20206;-73
2022/04/22 02:22:10;;;;;;;26.80;17.30;;;7.90;99.90;;;;;;5060679;28;20190;-73
2022/04/22 02:24:37;;;;;;;25.67;17.33;;;7.90;99.90;;;;;;5072504;28;20199;-73
2022/04/22 02:29:51;;;;;;;23.57;16.73;;;7.90;99.90;;;;;;5061361;28;20259;-73
2022/04/22 02:32:18;;;;;;;24.97;16.83;;;7.90;99.90;;;;;;5055059;28;20740;-73
2022/04/22 02:34:44;;;;;;;24.00;17.10;;;7.90;99.90;;;;;;5063315;28;20610;-73
2022/04/22 02:37:11;;;;;;;24.33;16.97;;;7.90;99.90;;;;;;5072696;28;20201;-73
2022/04/22 02:39:38;;;;;;;27.43;17.33;;;7.90;99.90;;;;;;5058740;28;20676;-72
2022/04/22 02:47:36;;;;;;;24.27;16.97;;;7.90;99.90;;;;;;5070670;28;20221;-73
2022/04/22 02:50:03;;;;;;;24.83;16.90;;;8.00;99.90;;;;;;5071191;28;20204;-73
2022/04/22 02:52:30;;;;;;;26.57;17.50;;;8.00;99.90;;;;;;5053250;28;20203;-73
2022/04/22 02:54:57;;;;;;;25.90;17.00;;;8.00;99.90;;;;;;5064428;28;20679;-73
2022/04/22 02:57:24;;;;;;;24.77;17.70;;;8.00;99.90;;;;;;5052043;28;20195;-73
2022/04/22 02:59:52;;;;;;;25.20;17.67;;;8.10;99.90;;;;;;5062458;28;20217;-73
2022/04/22 03:02:19;;;;;;;26.23;18.27;;;8.10;99.90;;;;;;5070924;28;20637;-73
2022/04/22 03:04:47;;;;;;;23.57;16.43;;;8.10;99.90;;;;;;5071649;28;20210;-73
2022/04/22 03:07:14;;;;;;;25.83;17.87;;;8.10;99.90;;;;;;5071717;28;20746;-73
2022/04/22 03:09:41;;;;;;;26.63;16.87;;;8.00;99.90;;;;;;5065221;28;20590;-73
2022/04/22 03:12:09;;;;;;;22.70;14.97;;;8.00;99.90;;;;;;5064614;28;20198;-73
2022/04/22 03:14:38;;;;;;;21.60;15.23;;;8.00;99.90;;;;;;5051738;28;20268;-73
2022/04/22 03:17:07;;;;;;;22.80;15.40;;;8.10;99.90;;;;;;5064721;28;20226;-73
2022/04/22 03:19:34;;;;;;;21.33;14.97;;;8.10;99.90;;;;;;5069611;28;20198;-73
2022/04/22 03:22:01;;;;;;;21.07;14.43;;;8.10;99.90;;;;;;5070814;28;20289;-73
2022/04/22 03:24:28;;;;;;;20.43;13.90;;;8.10;99.90;;;;;;5063222;28;20203;-73
2022/04/22 03:26:54;;;;;;;21.47;14.17;;;8.10;99.90;;;;;;5062688;28;20667;-73
2022/04/22 03:29:21;;;;;;;20.83;13.77;;;8.00;99.90;;;;;;5070849;28;20210;-73
2022/04/22 03:31:48;;;;;;;18.47;12.60;;;8.10;99.90;;;;;;5071351;28;20202;-73
2022/04/22 03:34:16;;;;;;;21.63;13.47;;;8.10;99.90;;;;;;5056503;28;20228;-73
2022/04/22 03:36:43;;;;;;;18.47;12.97;;;8.20;99.90;;;;;;5058694;28;20699;-73
2022/04/22 03:39:10;;;;;;;17.57;12.10;;;8.20;99.90;;;;;;5068550;28;20224;-75
2022/04/22 03:41:39;;;;;;;16.57;11.67;;;8.20;99.90;;;;;;5058548;28;20203;-74
2022/04/22 03:44:06;;;;;;;17.27;11.93;;;8.20;99.90;;;;;;5051805;28;20195;-73
2022/04/22 03:46:33;;;;;;;15.33;9.83;;;8.20;99.90;;;;;;5055716;28;20194;-73
2022/04/22 03:49:00;;;;;;;11.43;8.67;;;8.20;99.90;;;;;;5063511;28;20208;-71
2022/04/22 03:51:30;;;;;;;12.90;7.80;;;8.20;99.90;;;;;;5072169;28;20202;-72
2022/04/22 03:53:57;;;;;;;19.80;7.30;;;8.20;99.90;;;;;;5057600;28;20558;-72
2022/04/22 03:59:08;;;;;;;15.00;6.70;;;8.20;99.90;;;;;;5071890;28;20277;-72
2022/04/22 04:01:35;;;;;;;9.70;5.80;;;8.20;99.90;;;;;;5064087;28;20210;-72
2022/04/22 04:04:01;;;;;;;9.57;6.10;;;8.20;99.90;;;;;;5062284;28;20209;-72
2022/04/22 04:06:30;;;;;;;9.53;5.67;;;8.10;99.90;;;;;;5059150;28;20195;-72
2022/04/22 04:17:10;;;;;;;9.23;4.70;;;8.10;99.90;;;;;;5067469;28;20225;-71
2022/04/22 04:25:07;;;;;;;9.50;5.33;;;8.00;99.90;;;;;;5068887;28;20299;-72
2022/04/22 04:27:36;;;;;;;12.07;5.33;;;8.00;99.90;;;;;;5066043;28;20203;-72
2022/04/22 04:30:03;;;;;;;14.13;5.77;;;8.10;99.90;;;;;;5064946;28;20290;-71
2022/04/22 04:32:30;;;;;;;10.03;5.13;;;8.00;99.90;;;;;;5061492;28;20218;-72
2022/04/22 04:34:56;;;;;;;11.07;5.00;;;8.00;99.90;;;;;;5070981;28;20656;-72
2022/04/22 04:37:25;;;;;;;9.00;5.13;;;8.00;99.90;;;;;;5070113;28;20664;-72
2022/04/22 04:39:54;;;;;;;10.60;5.10;;;8.00;99.90;;;;;;5062985;28;20202;-71
2022/04/22 04:42:21;;;;;;;7.43;4.50;;;7.90;99.90;;;;;;5066018;28;20562;-71
2022/04/22 04:44:48;;;;;;;9.80;4.93;;;7.90;99.90;;;;;;5067499;28;20203;-71
2022/04/22 04:47:15;;;;;;;7.60;5.33;;;7.90;99.90;;;;;;5069611;28;20195;-71
2022/04/22 04:49:45;;;;;;;8.60;4.47;;;7.90;99.90;;;;;;5070131;28;20202;-72
2022/04/22 04:52:12;;;;;;;7.33;4.77;;;7.90;99.90;;;;;;5061810;28;20198;-71
2022/04/22 04:54:40;;;;;;;8.83;4.67;;;7.90;99.90;;;;;;5067271;28;20202;-71
2022/04/22 04:57:07;;;;;;;6.70;4.70;;;7.80;99.90;;;;;;5065294;28;20229;-71
2022/04/22 04:59:35;;;;;;;10.03;4.50;;;7.80;99.90;;;;;;5070793;28;20210;-71
2022/04/22 05:02:02;;;;;;;7.77;4.63;;;7.80;99.90;;;;;;5067996;28;20203;-72
2022/04/22 05:04:29;;;;;;;8.33;4.83;;;7.80;99.90;;;;;;5070477;28;20648;-71
2022/04/22 05:06:56;;;;;;;9.87;4.97;;;7.90;99.90;;;;;;5068335;28;20636;-71
2022/04/22 05:09:23;;;;;;;8.93;4.80;;;8.00;99.90;;;;;;5071787;28;20256;-71
2022/04/22 05:11:52;;;;;;;7.97;5.00;;;8.00;99.90;;;;;;5059933;28;20561;-71
2022/04/22 05:14:19;;;;;;;9.90;4.93;;;8.10;99.90;;;;;;5065046;28;20203;-71
2022/04/22 05:16:46;;;;;;;11.00;4.47;;;8.10;99.90;;;;;;5069590;28;20283;-71
2022/04/22 05:19:13;;;;;;;8.37;4.70;;;8.00;99.90;;;;;;5069039;28;20662;-72
2022/04/22 05:21:40;;;;;;;8.70;4.97;;;8.00;99.90;;;;;;5068376;28;20528;-71
2022/04/22 05:24:08;;;;;;;9.10;4.70;;;8.10;99.90;;;;;;5059866;28;20202;-72
2022/04/22 05:26:34;;;;;;;7.13;4.47;;;8.00;99.90;;;;;;5063246;28;20203;-71
2022/04/22 05:29:03;;;;;;;7.17;5.10;;;7.90;99.90;;;;;;5065438;28;20784;-71
2022/04/22 05:34:14;;;;;;;7.20;4.90;;;7.90;99.90;;;;;;5067254;28;20292;-71
2022/04/22 05:36:41;;;;;;;7.93;5.17;;;8.00;99.90;;;;;;5061007;28;20227;-71
2022/04/22 05:39:09;;;;;;;6.70;5.20;;;7.90;99.90;;;;;;5070051;28;20645;-71
2022/04/22 05:41:36;;;;;;;6.63;4.67;;;7.90;99.90;;;;;;5068398;28;20217;-71
2022/04/22 05:44:04;;;;;;;8.90;5.20;;;8.00;99.90;;;;;;5061934;28;20249;-74
2022/04/22 05:46:31;;;;;;;7.03;5.00;;;8.00;99.90;;;;;;5067230;28;20198;-74
2022/04/22 05:48:58;;;;;;;8.43;5.20;;;8.10;99.90;;;;;;5068981;28;20199;-74
2022/04/22 05:51:25;;;;;;;8.03;5.27;;;8.00;99.90;;;;;;5063871;28;20207;-74
2022/04/22 05:53:52;;;;;;;9.90;5.27;;;8.10;99.90;;;;;;5066762;28;20198;-74
2022/04/22 05:56:19;;;;;;;8.00;5.20;;;8.20;99.90;;;;;;5065696;28;20215;-74
2022/04/22 05:58:47;;;;;;;10.13;5.57;;;8.10;99.90;;;;;;5066135;28;20653;-74
2022/04/22 06:01:16;;;;;;;8.73;5.50;;;8.20;99.90;;;;;;5065517;28;20198;-74
2022/04/22 06:03:43;;;;;;;8.63;5.70;;;8.30;99.90;;;;;;5069335;28;20251;-74
2022/04/22 06:06:10;;;;;;;8.53;5.60;;;8.30;99.90;;;;;;5064189;28;20199;-74
2022/04/22 06:11:21;;;;;;;12.93;6.00;;;8.20;99.90;;;;;;5068354;28;20656;-74
2022/04/22 06:13:48;;;;;;;9.10;5.67;;;8.30;99.90;;;;;;5065668;28;20203;-77
2022/04/22 06:16:17;;;;;;;9.13;5.17;;;8.30;99.90;;;;;;5068036;28;20218;-79
2022/04/22 06:18:44;;;;;;;11.50;6.30;;;8.40;99.90;;;;;;5064998;28;20568;-78
2022/04/22 06:21:11;;;;;;;10.27;5.93;;;8.50;99.90;;;;;;5065525;28;20542;-71
2022/04/22 06:23:38;;;;;;;9.83;5.87;;;8.40;99.90;;;;;;5063057;28;20570;-75
2022/04/22 06:26:05;;;;;;;11.27;5.03;;;8.40;99.90;;;;;;5067974;28;20202;-75
2022/04/22 06:28:33;;;;;;;14.50;6.47;;;8.40;99.90;;;;;;5066267;28;20206;-75
2022/04/22 06:31:00;;;;;;;11.40;6.07;;;8.40;99.90;;;;;;5062077;28;20571;-75
2022/04/22 06:33:29;;;;;;;12.93;6.40;;;8.40;99.90;;;;;;5066843;28;20210;-74
2022/04/22 06:36:01;;;;;;;10.00;5.23;;;8.30;99.90;;;;;;5068365;28;20199;-73
2022/04/22 06:38:29;;;;;;;10.77;5.77;;;8.40;99.90;;;;;;5065291;28;20233;-72
2022/04/22 06:46:26;;;;;;;8.37;5.50;;;8.50;99.90;;;;;;5065993;28;20201;-72
2022/04/22 06:48:55;;;;;;;10.07;6.07;;;8.60;99.90;;;;;;5063760;28;20199;-74
2022/04/22 06:51:23;;;;;;;9.40;5.63;;;8.70;99.90;;;;;;5065720;28;20542;-75
2022/04/22 06:53:52;;;;;;;9.47;5.50;;;9.10;99.90;;;;;;5065418;28;20213;-72
2022/04/22 06:56:26;;;;;;;8.10;5.53;;;9.20;99.90;;;;;;5064038;28;20656;-72
2022/04/22 06:58:53;;;;;;;10.17;5.93;;;9.10;99.90;;;;;;5061440;28;20255;-72
2022/04/22 07:01:20;;;;;;;10.77;5.53;;;8.80;99.90;;;;;;5059481;28;20206;-75
2022/04/22 07:03:47;;;;;;;11.33;5.53;;;8.80;99.90;;;;;;5063607;28;20552;-75
2022/04/22 07:06:16;;;;;;;12.07;5.60;;;9.60;99.90;;;;;;5067922;28;20203;-75
2022/04/22 07:08:46;;;;;;;9.03;5.57;;;9.90;99.90;;;;;;5068838;28;20198;-75
2022/04/22 07:11:17;;;;;;;7.63;5.20;;;9.50;99.90;;;;;;5062387;28;20199;-75
2022/04/22 07:13:44;;;;;;;10.03;5.43;;;9.20;99.90;;;;;;5068410;28;20199;-75
2022/04/22 07:16:16;;;;;;;9.73;5.50;;;9.00;99.90;;;;;;5065965;28;20202;-75
2022/04/22 07:18:43;;;;;;;13.33;6.47;;;8.80;99.90;;;;;;5065383;28;20198;-75
2022/04/22 07:21:11;;;;;;;13.63;6.27;;;8.80;99.90;;;;;;5061766;28;20663;-75
2022/04/22 07:23:40;;;;;;;10.83;5.73;;;9.00;99.90;;;;;;5067895;28;20210;-75
2022/04/22 07:26:09;;;;;;;9.10;6.10;;;8.90;99.90;;;;;;5068942;28;20619;-75
2022/04/22 07:28:38;;;;;;;11.77;6.17;;;8.80;99.90;;;;;;5069605;28;20244;-75
2022/04/22 07:31:05;;;;;;;10.03;6.17;;;8.80;99.90;;;;;;5067703;28;20199;-75
2022/04/22 07:33:32;;;;;;;18.10;7.20;;;9.00;99.90;;;;;;5072683;28;20218;-75
2022/04/22 07:36:00;;;;;;;11.03;6.77;;;9.00;99.90;;;;;;5067809;28;20225;-75
2022/04/22 07:38:28;;;;;;;9.73;6.37;;;9.10;99.90;;;;;;5066744;28;20758;-75
2022/04/22 07:40:56;;;;;;;11.43;6.60;;;9.10;99.90;;;;;;5070369;28;20259;-75
2022/04/22 07:48:56;;;;;;;12.33;6.97;;;9.20;99.90;;;;;;5068363;28;20241;-75
2022/04/22 07:51:23;;;;;;;12.63;7.17;;;9.10;99.90;;;;;;5060152;28;20207;-75
2022/04/22 07:53:51;;;;;;;12.43;7.20;;;9.20;99.90;;;;;;5068687;28;20198;-75
2022/04/22 07:56:19;;;;;;;13.93;8.10;;;9.20;99.90;;;;;;5062595;28;20237;-74
2022/04/22 07:58:46;;;;;;;12.67;8.10;;;9.30;99.90;;;;;;5066356;28;20547;-75
2022/04/22 08:01:13;;;;;;;13.40;8.20;;;9.10;99.90;;;;;;5068309;28;20205;-75
2022/04/22 08:03:40;;;;;;;17.57;8.37;;;9.20;99.90;;;;;;5068152;28;20202;-75
2022/04/22 08:06:07;;;;;;;13.20;7.90;;;9.40;99.90;;;;;;5069579;28;20210;-75
2022/04/22 08:08:34;;;;;;;13.27;8.53;;;9.40;99.90;;;;;;5064785;28;20562;-75
2022/04/22 08:11:01;;;;;;;14.70;8.67;;;9.40;99.90;;;;;;5071735;28;20555;-75
2022/04/22 08:13:29;;;;;;;15.03;9.60;;;9.20;99.90;;;;;;5070427;28;20215;-76
2022/04/22 08:15:56;;;;;;;16.73;10.13;;;9.20;99.90;;;;;;5066787;28;20198;-76
2022/04/22 08:18:23;;;;;;;15.47;9.70;;;9.40;99.90;;;;;;5066163;28;20226;-75
2022/04/22 08:20:50;;;;;;;15.23;9.73;;;9.40;99.90;;;;;;5071538;28;20194;-75
2022/04/22 08:23:20;;;;;;;17.70;10.33;;;9.40;99.90;;;;;;5065952;28;20199;-75
2022/04/22 08:25:47;;;;;;;17.63;10.03;;;9.80;99.90;;;;;;5070419;28;20245;-76
2022/04/22 08:28:14;;;;;;;17.70;10.00;;;10.30;99.90;;;;;;5057716;28;20203;-75
2022/04/22 08:30:42;;;;;;;16.43;9.53;;;10.20;99.90;;;;;;5063922;28;20207;-75
2022/04/22 08:33:09;;;;;;;15.97;10.10;;;10.40;99.90;;;;;;5068572;28;20213;-75
2022/04/22 08:35:36;;;;;;;16.60;10.30;;;10.20;99.90;;;;;;5073298;28;20263;-75
2022/04/22 08:38:06;;;;;;;14.93;9.43;;;9.80;99.90;;;;;;5068337;28;20219;-75
2022/04/22 08:40:37;;;;;;;16.30;9.87;;;10.20;99.90;;;;;;5064535;28;20199;-76
2022/04/22 08:43:05;;;;;;;16.37;9.30;;;10.20;99.90;;;;;;5070748;28;20248;-76
2022/04/22 08:45:33;;;;;;;17.00;10.03;;;10.10;99.90;;;;;;5071214;28;20265;-75
2022/04/22 08:50:52;;;;;;;19.87;10.43;;;10.00;99.90;;;;;;5064080;28;20260;-75
2022/04/22 08:53:23;;;;;;;17.80;9.07;;;10.20;99.90;;;;;;5067629;28;20827;-75
2022/04/22 08:55:55;;;;;;;18.67;9.63;;;10.40;99.90;;;;;;5068974;28;20199;-75
2022/04/22 08:58:23;;;;;;;16.43;8.87;;;9.80;99.90;;;;;;5066343;28;20215;-75
2022/04/22 09:00:52;;;;;;;20.03;9.83;;;10.00;99.90;;;;;;5060464;28;20203;-72
2022/04/22 09:03:21;;;;;;;18.50;9.40;;;10.20;99.90;;;;;;5067394;28;20209;-74
2022/04/22 09:05:48;;;;;;;16.57;9.60;;;10.00;99.90;;;;;;5068530;28;21351;-72
2022/04/22 09:08:15;;;;;;;16.17;10.07;;;10.10;99.90;;;;;;5071483;28;20289;-72
2022/04/22 09:10:42;;;;;;;15.17;9.67;;;10.00;99.90;;;;;;5068128;28;20213;-74
2022/04/22 09:13:10;;;;;;;19.53;10.33;;;10.10;99.90;;;;;;5068770;28;20198;-74
2022/04/22 09:15:39;;;;;;;25.40;11.83;;;10.10;99.90;;;;;;5068345;28;20276;-74
2022/04/22 09:18:14;;;;;;;19.93;10.97;;;10.00;99.90;;;;;;5069128;28;20225;-74
2022/04/22 09:20:43;;;;;;;18.83;10.33;;;10.50;99.90;;;;;;5065060;28;20202;-74
2022/04/22 09:23:31;;;;;;;19.30;10.67;;;10.20;99.90;;;;;;5067441;28;20637;-74
2022/04/22 09:25:58;;;;;;;17.83;9.93;;;10.20;99.90;;;;;;5065322;28;20667;-74
2022/04/22 09:28:25;;;;;;;16.67;9.50;;;11.00;99.90;;;;;;5070360;28;20675;-74
2022/04/22 09:30:59;;;;;;;16.57;10.47;;;10.90;99.90;;;;;;5060453;28;20672;-74
2022/04/22 09:33:33;;;;;;;16.17;9.90;;;10.40;99.90;;;;;;5064362;28;20217;-74
2022/04/22 09:44:36;;;;;;;15.50;9.30;;;11.70;99.90;;;;;;5057634;28;20560;-74
2022/04/22 09:47:12;;;;;;;14.87;9.43;;;12.10;99.90;;;;;;5069856;28;20202;-74
2022/04/22 09:49:43;;;;;;;14.97;9.13;;;11.80;99.90;;;;;;5072548;28;20214;-75
2022/04/22 09:52:11;;;;;;;16.20;9.77;;;11.50;99.90;;;;;;5072153;28;20206;-74
2022/04/22 09:54:39;;;;;;;16.93;10.03;;;11.30;99.90;;;;;;5073128;28;20213;-74
2022/04/22 09:57:06;;;;;;;14.57;9.80;;;11.10;99.90;;;;;;5073421;28;20210;-74
2022/04/22 09:59:35;;;;;;;16.60;10.03;;;11.50;99.90;;;;;;5072168;28;20206;-75
2022/04/22 10:02:02;;;;;;;14.43;9.10;;;11.70;99.90;;;;;;5073364;28;20187;-75
2022/04/22 10:04:29;;;;;;;16.97;10.07;;;12.00;99.90;;;;;;5073207;28;20208;-75
2022/04/22 10:06:57;;;;;;;16.03;10.20;;;11.70;99.90;;;;;;5072901;28;20645;-76
2022/04/22 10:09:27;;;;;;;15.20;9.27;;;11.70;99.90;;;;;;5066374;28;20199;-74
2022/04/22 10:11:58;;;;;;;16.73;10.00;;;11.60;99.90;;;;;;5065266;28;20202;-74
2022/04/22 10:14:35;;;;;;;15.70;10.50;;;11.60;99.90;;;;;;5064602;28;20201;-74
2022/04/22 10:17:03;;;;;;;22.23;10.53;;;11.60;99.90;;;;;;5067889;28;20210;-74
2022/04/22 10:19:32;;;;;;;18.30;11.50;;;11.50;99.90;;;;;;5063539;28;20663;-74
2022/04/22 10:22:00;;;;;;;17.33;10.63;;;11.80;99.90;;;;;;5067304;28;20566;-74
2022/04/22 10:24:31;;;;;;;19.03;11.00;;;11.90;99.90;;;;;;5069512;28;20549;-74
2022/04/22 10:27:00;;;;;;;20.80;12.13;;;12.40;99.90;;;;;;5067907;28;20272;-74
2022/04/22 10:29:29;;;;;;;17.63;11.30;;;12.20;99.90;;;;;;5060638;28;20210;-74
2022/04/22 10:31:57;;;;;;;19.73;13.07;;;11.90;99.90;;;;;;5067221;28;20208;-74
2022/04/22 10:34:38;;;;;;;22.37;14.47;;;11.50;99.90;;;;;;5065042;28;20205;-74
2022/04/22 10:37:15;;;;;;;21.20;13.77;;;12.00;99.90;;;;;;5067347;28;20198;-74
2022/04/22 10:39:43;;;;;;;20.93;13.83;;;12.00;99.90;;;;;;5051211;28;20197;-74
2022/04/22 10:42:15;;;;;;;21.93;14.97;;;12.00;99.90;;;;;;5064215;28;20198;-74
2022/04/22 10:47:44;;;;;;;22.93;15.93;;;11.90;99.90;;;;;;5066577;28;20267;-74
2022/04/22 10:50:25;;;;;;;23.00;18.03;;;11.90;99.90;;;;;;5062445;28;20558;-74
2022/04/22 10:53:03;;;;;;;26.87;16.77;;;12.10;99.90;;;;;;5061926;28;20564;-74
2022/04/22 10:55:36;;;;;;;23.37;16.90;;;11.90;99.90;;;;;;5066279;28;20261;-74
2022/04/22 10:58:24;;;;;;;24.70;19.50;;;11.60;99.90;;;;;;5061913;28;20337;-74
2022/04/22 11:00:53;;;;;;;26.67;18.17;;;11.80;99.90;;;;;;5061279;28;20208;-74
2022/04/22 11:03:22;;;;;;;27.63;18.07;;;11.90;99.90;;;;;;5065413;28;20538;-74
2022/04/22 11:05:50;;;;;;;25.07;18.37;;;11.60;99.90;;;;;;5066713;28;20211;-74
2022/04/22 11:08:35;;;;;;;27.13;18.97;;;11.50;99.90;;;;;;5065774;28;20198;-74
2022/04/22 11:11:18;;;;;;;25.20;19.00;;;11.60;99.90;;;;;;5064997;28;20579;-74
2022/04/22 11:13:50;;;;;;;25.27;19.23;;;11.80;99.90;;;;;;5067952;28;20721;-74
2022/04/22 11:16:30;;;;;;;24.20;18.90;;;11.80;99.90;;;;;;5066527;28;20233;-74
2022/04/22 11:19:25;;;;;;;25.73;19.53;;;12.00;99.90;;;;;;5069321;28;20273;-74
2022/04/22 11:21:55;;;;;;;26.63;19.90;;;12.20;99.90;;;;;;5046983;28;20268;-74
2022/04/22 11:24:23;;;;;;;28.30;21.53;;;12.30;99.90;;;;;;5065078;28;20807;-74
2022/04/22 11:26:52;;;;;;;28.03;18.63;;;12.70;99.90;;;;;;5069144;28;20211;-74
2022/04/22 11:29:20;;;;;;;24.97;18.50;;;12.90;99.90;;;;;;5063500;28;20199;-74
2022/04/22 11:31:58;;;;;;;25.00;18.83;;;12.70;99.90;;;;;;5058109;28;20208;-76
2022/04/22 11:34:46;;;;;;;25.93;19.43;;;12.80;99.90;;;;;;5050103;28;20289;-76
2022/04/22 11:37:18;;;;;;;27.70;19.20;;;12.80;99.90;;;;;;5066782;28;20195;-76
2022/04/22 11:39:47;;;;;;;26.43;18.63;;;12.80;99.90;;;;;;5062089;28;20677;-76
2022/04/22 11:42:17;;;;;;;25.20;18.27;;;13.00;99.90;;;;;;5061648;28;20658;-76
2022/04/22 11:44:44;;;;;;;23.37;17.33;;;13.00;99.90;;;;;;5066630;28;20214;-76
2022/04/22 11:47:11;;;;;;;25.13;17.53;;;12.80;99.90;;;;;;5066738;28;20195;-76
2022/04/22 11:49:39;;;;;;;24.43;18.33;;;12.80;99.90;;;;;;5061281;28;20301;-76
2022/04/22 11:52:07;;;;;;;24.03;18.00;;;13.10;99.90;;;;;;5069033;28;20653;-76
2022/04/22 11:54:36;;;;;;;26.67;18.40;;;13.20;99.90;;;;;;5062598;28;20217;-76
2022/04/22 11:57:06;;;;;;;23.63;18.13;;;13.10;99.90;;;;;;5060686;28;20603;-76
2022/04/22 11:59:41;;;;;;;23.20;16.77;;;13.30;99.90;;;;;;5065524;28;20735;-77
2022/04/22 12:10:28;;;;;;;20.43;15.83;;;14.40;99.90;;;;;;5065106;28;20221;-77
2022/04/22 12:12:57;;;;;;;17.73;14.37;;;14.20;99.90;;;;;;5067177;28;20264;-76
2022/04/22 12:15:26;;;;;;;19.53;14.13;;;14.30;99.90;;;;;;5069152;28;20236;-77
2022/04/22 12:17:52;;;;;;;18.47;13.67;;;13.90;99.90;;;;;;5067966;28;20900;-76
2022/04/22 12:20:20;;;;;;;23.23;14.57;;;14.20;99.90;;;;;;5070056;28;20202;-77
2022/04/22 12:22:49;;;;;;;18.57;13.73;;;13.90;99.90;;;;;;5067738;28;20218;-77
2022/04/22 12:25:19;;;;;;;19.50;13.67;;;14.10;99.90;;;;;;5064017;28;20256;-77
2022/04/22 12:28:09;;;;;;;18.77;14.13;;;13.90;99.90;;;;;;5064769;28;20206;-77
2022/04/22 12:30:39;;;;;;;20.73;14.00;;;14.30;99.90;;;;;;5070569;28;20202;-77
2022/04/22 12:33:06;;;;;;;19.60;13.63;;;14.20;99.90;;;;;;5062494;28;20207;-76
2022/04/22 12:35:34;;;;;;;19.07;13.67;;;14.40;99.90;;;;;;5066835;28;20202;-76
2022/04/22 12:38:06;;;;;;;19.30;13.70;;;14.20;99.90;;;;;;5069615;28;20663;-76
2022/04/22 12:40:45;;;;;;;19.67;13.70;;;14.50;99.90;;;;;;5069008;28;20661;-76
2022/04/22 12:43:23;;;;;;;17.37;12.57;;;14.60;99.90;;;;;;5066552;28;20214;-77
2022/04/22 12:54:13;;;;;;;16.50;12.60;;;14.50;99.90;;;;;;5071199;28;20562;-77
2022/04/22 12:56:40;;;;;;;17.13;12.17;;;14.20;99.90;;;;;;5070559;28;20657;-77
2022/04/22 12:59:07;;;;;;;15.53;12.27;;;14.30;99.90;;;;;;5067710;28;20580;-77
2022/04/22 13:01:39;;;;;;;17.03;12.10;;;14.50;99.90;;;;;;5070241;28;20247;-77
2022/04/22 13:04:07;;;;;;;16.77;12.20;;;14.70;99.90;;;;;;5067552;28;20672;-76
2022/04/22 13:06:39;;;;;;;16.07;11.77;;;14.90;99.90;;;;;;5063390;28;20206;-76
2022/04/22 13:09:07;;;;;;;17.20;11.77;;;15.00;99.90;;;;;;5068357;28;20195;-77
2022/04/22 13:11:34;;;;;;;17.87;12.83;;;14.90;99.90;;;;;;5070094;28;20221;-76
2022/04/22 13:14:01;;;;;;;16.20;11.50;;;15.00;99.90;;;;;;5066951;28;20203;-77
2022/04/22 13:16:28;;;;;;;14.73;10.40;;;15.00;99.90;;;;;;5073416;28;20202;-77
2022/04/22 13:18:58;;;;;;;15.47;11.07;;;14.80;99.90;;;;;;5064355;28;20218;-77
2022/04/22 13:21:25;;;;;;;15.63;10.97;;;14.70;99.90;;;;;;5064659;28;20199;-77
2022/04/22 13:23:52;;;;;;;12.63;9.87;;;14.70;99.90;;;;;;5070080;28;20202;-77
2022/04/22 13:26:19;;;;;;;14.63;9.67;;;15.10;99.90;;;;;;5066260;28;20567;-77
2022/04/22 13:28:46;;;;;;;15.70;10.63;;;14.70;99.90;;;;;;5067511;28;20200;-77
2022/04/22 13:31:14;;;;;;;14.97;9.33;;;14.60;99.90;;;;;;5061420;28;20202;-77
2022/04/22 13:33:41;;;;;;;14.03;9.33;;;14.90;99.20;;;;;;5068679;28;20210;-77
2022/04/22 13:36:10;;;;;;;12.50;9.40;;;15.60;95.70;;;;;;5065990;28;20202;-77
2022/04/22 13:38:38;;;;;;;15.40;11.00;;;15.60;94.60;;;;;;5060789;28;20302;-77
2022/04/22 13:41:05;;;;;;;13.23;9.80;;;15.20;96.80;;;;;;5063404;28;20248;-77
2022/04/22 13:43:32;;;;;;;11.90;9.40;;;15.40;97.60;;;;;;5069573;28;20561;-77
2022/04/22 13:54:38;;;;;;;10.23;6.63;;;16.20;90.60;;;;;;5043016;28;20217;-77
2022/04/22 13:57:05;;;;;;;11.57;7.37;;;16.40;79.80;;;;;;5067968;28;20768;-77
2022/04/22 13:59:33;;;;;;;11.88;7.68;;;16.10;80.80;;;;;;5067438;28;20588;-77
2022/04/22 14:02:01;;;;;;;10.37;7.63;;;15.90;81.40;;;;;;5062412;28;20209;-76
2022/04/22 14:04:29;;;;;;;9.50;7.37;;;15.60;89.70;;;;;;5064492;28;20213;-77
2022/04/22 14:06:57;;;;;;;9.53;7.23;;;15.40;91.90;;;;;;5067240;28;20205;-77
2022/04/22 14:09:24;;;;;;;12.27;7.53;;;15.40;90.80;;;;;;5064185;28;20203;-77
2022/04/22 14:11:51;;;;;;;9.77;7.00;;;15.30;92.70;;;;;;5064465;28;20736;-77
2022/04/22 14:14:20;;;;;;;12.10;6.77;;;15.10;94.30;;;;;;5059633;28;20199;-77